createdAt,value
2017-09-09T00:02:28.089Z,11.00
2017-09-09T00:04:56.399Z,11.00
2017-09-09T00:07:23.968Z,10.90
2017-09-09T00:09:51.503Z,11.00
2017-09-09T00:12:20.008Z,10.90
2017-09-09T00:14:47.534Z,10.90
2017-09-09T00:17:15.834Z,10.90
2017-09-09T00:19:43.380Z,10.90
2017-09-09T00:22:11.686Z,10.90
2017-09-09T00:24:39.208Z,10.80
2017-09-09T00:27:07.622Z,10.90
2017-09-09T00:29:35.189Z,10.80
2017-09-09T00:32:02.746Z,10.90
2017-09-09T00:34:30.294Z,10.90
2017-09-09T00:36:57.825Z,10.90
2017-09-09T00:39:26.113Z,10.90
2017-09-09T00:41:53.674Z,10.90
2017-09-09T00:44:21.202Z,10.90
2017-09-09T00:46:48.733Z,10.90
2017-09-09T00:49:16.277Z,10.90
2017-09-09T00:51:43.797Z,10.90
2017-09-09T00:54:12.115Z,10.80
2017-09-09T00:56:39.657Z,10.80
2017-09-09T00:59:07.181Z,10.70
2017-09-09T01:01:34.708Z,10.70
2017-09-09T01:04:02.249Z,10.70
2017-09-09T01:06:29.819Z,10.70
2017-09-09T01:08:57.376Z,10.60
2017-09-09T01:11:24.922Z,10.60
2017-09-09T01:13:52.478Z,10.60
2017-09-09T01:16:20.002Z,10.50
2017-09-09T01:18:48.330Z,10.60
2017-09-09T01:21:15.890Z,10.50
2017-09-09T01:23:43.442Z,10.50
2017-09-09T01:26:10.989Z,10.50
2017-09-09T01:28:38.518Z,10.50
2017-09-09T01:31:06.125Z,10.50
2017-09-09T01:33:33.680Z,10.50
2017-09-09T01:36:01.213Z,10.50
2017-09-09T01:38:29.516Z,10.50
2017-09-09T01:40:57.057Z,10.50
2017-09-09T01:43:24.641Z,10.50
2017-09-09T01:45:52.161Z,10.50
2017-09-09T01:48:20.585Z,10.40
2017-09-09T01:50:48.145Z,10.40
2017-09-09T01:53:15.677Z,10.40
2017-09-09T01:55:43.261Z,10.40
2017-09-09T01:58:10.781Z,10.40
2017-09-09T02:00:39.073Z,10.30
2017-09-09T02:03:06.617Z,10.30
2017-09-09T02:05:34.908Z,10.30
2017-09-09T02:08:02.532Z,10.30
2017-09-09T02:10:30.086Z,10.30
2017-09-09T02:12:57.710Z,10.30
2017-09-09T02:15:25.230Z,10.20
2017-09-09T02:17:53.539Z,10.20
2017-09-09T02:20:21.142Z,10.20
2017-09-09T02:22:48.789Z,10.20
2017-09-09T02:25:16.434Z,10.20
2017-09-09T02:27:43.995Z,10.20
2017-09-09T02:30:11.562Z,10.20
2017-09-09T02:32:39.215Z,10.20
2017-09-09T02:35:06.737Z,10.10
2017-09-09T02:37:35.058Z,10.10
2017-09-09T02:40:02.614Z,10.10
2017-09-09T02:42:30.141Z,10.10
2017-09-09T02:44:57.730Z,10.10
2017-09-09T02:47:25.294Z,10.10
2017-09-09T02:49:52.849Z,10.10
2017-09-09T02:52:20.374Z,10.10
2017-09-09T02:54:48.683Z,10.10
2017-09-09T02:57:16.197Z,10.10
2017-09-09T02:59:43.736Z,10.10
2017-09-09T03:02:11.377Z,10.10
2017-09-09T03:04:38.900Z,10.10
2017-09-09T03:07:06.491Z,10.10
2017-09-09T03:09:34.050Z,10.10
2017-09-09T03:12:01.590Z,10.10
2017-09-09T03:14:29.166Z,10.10
2017-09-09T03:16:56.710Z,10.10
2017-09-09T03:19:24.284Z,10.10
2017-09-09T03:21:51.848Z,10.00
2017-09-09T03:24:19.398Z,10.00
2017-09-09T03:26:46.930Z,10.00
2017-09-09T03:29:15.226Z,10.00
2017-09-09T03:31:42.777Z,10.00
2017-09-09T03:34:10.298Z,10.00
2017-09-09T03:36:37.925Z,9.90
2017-09-09T03:39:05.481Z,9.90
2017-09-09T03:41:32.997Z,9.90
2017-09-09T03:44:00.605Z,9.80
2017-09-09T03:46:28.165Z,9.80
2017-09-09T03:48:55.721Z,9.80
2017-09-09T03:51:23.241Z,9.80
2017-09-09T03:53:51.609Z,9.90
2017-09-09T03:56:19.127Z,9.90
2017-09-09T03:58:46.645Z,9.90
2017-09-09T04:01:15.053Z,9.90
2017-09-09T04:03:42.719Z,9.90
2017-09-09T04:06:10.255Z,9.90
2017-09-09T04:08:37.795Z,9.80
2017-09-09T04:11:06.081Z,9.90
2017-09-09T04:13:34.369Z,10.00
2017-09-09T04:16:01.906Z,9.90
2017-09-09T04:18:30.226Z,9.90
2017-09-09T04:20:57.790Z,9.90
2017-09-09T04:23:25.344Z,9.90
2017-09-09T04:25:52.866Z,9.90
2017-09-09T04:28:21.163Z,10.00
2017-09-09T04:30:48.718Z,10.00
2017-09-09T04:33:16.310Z,10.10
2017-09-09T04:35:43.838Z,10.10
2017-09-09T04:38:11.382Z,10.10
2017-09-09T04:40:39.673Z,10.10
2017-09-09T04:43:07.262Z,10.10
2017-09-09T04:45:34.812Z,10.10
2017-09-09T04:48:02.347Z,10.20
2017-09-09T04:50:30.642Z,10.20
2017-09-09T04:52:58.217Z,10.20
2017-09-09T04:55:25.773Z,10.30
2017-09-09T04:57:53.290Z,10.30
2017-09-09T05:00:21.604Z,10.50
2017-09-09T05:02:49.183Z,10.50
2017-09-09T05:05:16.704Z,10.60
2017-09-09T05:07:44.253Z,10.80
2017-09-09T05:10:12.565Z,10.90
2017-09-09T05:12:40.097Z,10.90
2017-09-09T05:15:07.639Z,10.90
2017-09-09T05:17:35.935Z,11.10
2017-09-09T05:20:03.462Z,11.10
2017-09-09T05:22:31.004Z,11.20
2017-09-09T05:24:58.546Z,11.20
2017-09-09T05:27:26.070Z,11.20
2017-09-09T05:29:54.380Z,11.30
2017-09-09T05:32:21.938Z,11.30
2017-09-09T05:34:49.464Z,11.40
2017-09-09T05:37:17.869Z,11.60
2017-09-09T05:39:45.440Z,11.50
2017-09-09T05:42:13.102Z,11.60
2017-09-09T05:44:40.661Z,11.60
2017-09-09T05:47:08.202Z,11.70
2017-09-09T05:49:35.726Z,11.80
2017-09-09T05:52:03.277Z,11.80
2017-09-09T05:54:30.807Z,11.80
2017-09-09T05:56:58.358Z,11.80
2017-09-09T05:59:25.901Z,11.80
2017-09-09T06:01:53.433Z,11.80
2017-09-09T06:04:21.745Z,11.80
2017-09-09T06:06:49.293Z,11.80
2017-09-09T06:09:16.821Z,11.70
2017-09-09T06:11:45.113Z,11.70
2017-09-09T06:14:13.525Z,11.80
2017-09-09T06:16:41.057Z,11.80
2017-09-09T06:19:09.365Z,11.80
2017-09-09T06:21:36.925Z,11.80
2017-09-09T06:24:04.454Z,11.90
2017-09-09T06:26:32.757Z,12.00
2017-09-09T06:29:00.306Z,12.00
2017-09-09T06:31:27.881Z,12.10
2017-09-09T06:33:55.410Z,12.30
2017-09-09T06:36:22.962Z,12.40
2017-09-09T06:38:51.252Z,12.70
2017-09-09T06:41:18.836Z,12.60
2017-09-09T06:43:46.372Z,12.70
2017-09-09T06:46:14.059Z,12.90
2017-09-09T06:48:41.595Z,13.00
2017-09-09T06:51:09.178Z,13.10
2017-09-09T06:53:36.743Z,13.20
2017-09-09T06:56:04.274Z,13.30
2017-09-09T06:58:31.853Z,13.40
2017-09-09T07:00:59.482Z,13.60
2017-09-09T07:03:27.801Z,13.90
2017-09-09T07:05:55.458Z,13.90
2017-09-09T07:08:23.022Z,14.00
2017-09-09T07:10:50.541Z,14.20
2017-09-09T07:13:18.853Z,14.20
2017-09-09T07:15:46.413Z,14.20
2017-09-09T07:18:13.934Z,14.20
2017-09-09T07:20:42.250Z,14.20
2017-09-09T07:23:09.805Z,14.10
2017-09-09T07:25:37.321Z,14.30
2017-09-09T07:28:05.621Z,15.00
2017-09-09T07:30:33.208Z,15.00
2017-09-09T07:33:00.733Z,15.40
2017-09-09T07:35:28.276Z,15.80
2017-09-09T07:37:56.604Z,16.40
2017-09-09T07:40:24.127Z,16.30
2017-09-09T07:42:51.668Z,16.60
2017-09-09T07:45:19.996Z,16.80
2017-09-09T07:47:47.562Z,16.80
2017-09-09T07:50:15.114Z,17.20
2017-09-09T07:52:42.686Z,17.30
2017-09-09T07:55:10.206Z,17.30
2017-09-09T07:57:38.509Z,17.40
2017-09-09T08:00:06.073Z,17.40
2017-09-09T08:02:33.631Z,17.30
2017-09-09T08:05:01.193Z,17.40
2017-09-09T08:07:28.717Z,17.40
2017-09-09T08:09:56.237Z,17.60
2017-09-09T08:12:23.774Z,17.60
2017-09-09T08:14:51.329Z,17.90
2017-09-09T08:17:18.888Z,17.90
2017-09-09T08:19:46.447Z,17.90
2017-09-09T08:22:13.964Z,17.80
2017-09-09T08:24:42.282Z,18.00
2017-09-09T08:27:09.820Z,18.00
2017-09-09T08:29:38.118Z,18.10
2017-09-09T08:32:05.650Z,18.10
2017-09-09T08:34:33.974Z,18.40
2017-09-09T08:37:01.501Z,18.40
2017-09-09T08:39:29.078Z,18.60
2017-09-09T08:41:56.642Z,18.90
2017-09-09T08:44:24.162Z,18.90
2017-09-09T08:46:52.478Z,18.80
2017-09-09T08:49:20.014Z,18.70
2017-09-09T08:51:47.542Z,18.70
2017-09-09T08:54:15.833Z,18.80
2017-09-09T08:56:44.137Z,18.90
2017-09-09T08:59:11.705Z,18.90
2017-09-09T09:01:39.221Z,19.20
2017-09-09T09:04:06.823Z,19.30
2017-09-09T09:06:34.349Z,19.50
2017-09-09T09:09:02.633Z,20.50
2017-09-09T09:11:30.934Z,20.70
2017-09-09T09:13:58.500Z,20.70
2017-09-09T09:16:26.024Z,20.70
2017-09-09T09:18:54.434Z,20.90
2017-09-09T09:21:21.956Z,20.90
2017-09-09T09:23:50.247Z,21.30
2017-09-09T09:26:17.781Z,21.30
2017-09-09T09:28:45.398Z,21.10
2017-09-09T09:31:13.286Z,21.70
2017-09-09T09:33:40.919Z,22.10
2017-09-09T09:36:08.478Z,22.40
2017-09-09T09:38:35.990Z,22.60
2017-09-09T09:41:03.606Z,22.30
2017-09-09T09:43:31.158Z,22.30
2017-09-09T09:45:58.682Z,21.90
2017-09-09T09:48:27.002Z,21.80
2017-09-09T09:50:54.529Z,21.80
2017-09-09T09:53:22.831Z,23.00
2017-09-09T09:55:50.393Z,22.90
2017-09-09T09:58:17.910Z,23.30
2017-09-09T10:00:46.197Z,23.70
2017-09-09T10:03:14.521Z,23.90
2017-09-09T10:05:42.070Z,23.80
2017-09-09T10:08:09.629Z,23.60
2017-09-09T10:10:37.161Z,23.60
2017-09-09T10:13:04.685Z,23.50
2017-09-09T10:15:32.212Z,23.00
2017-09-09T10:17:59.761Z,22.60
2017-09-09T10:20:27.273Z,22.80
2017-09-09T10:22:55.569Z,22.90
2017-09-09T10:25:25.353Z,22.50
2017-09-09T10:27:52.869Z,22.50
2017-09-09T10:30:20.399Z,22.80
2017-09-09T10:32:48.805Z,22.70
2017-09-09T10:35:16.313Z,22.70
2017-09-09T10:37:43.996Z,22.60
2017-09-09T10:40:12.305Z,22.20
2017-09-09T10:42:39.865Z,22.20
2017-09-09T10:45:07.428Z,22.10
2017-09-09T10:47:34.963Z,22.10
2017-09-09T10:50:02.481Z,21.90
2017-09-09T10:52:30.112Z,21.90
2017-09-09T10:54:57.650Z,22.00
2017-09-09T10:57:25.224Z,22.10
2017-09-09T10:59:52.746Z,21.90
2017-09-09T11:02:21.052Z,21.90
2017-09-09T11:04:48.578Z,21.90
2017-09-09T11:07:16.866Z,22.10
2017-09-09T11:09:45.278Z,21.90
2017-09-09T11:12:12.806Z,21.90
2017-09-09T11:14:41.098Z,22.00
2017-09-09T11:17:08.634Z,22.00
2017-09-09T11:19:36.913Z,22.20
2017-09-09T11:22:05.641Z,22.10
2017-09-09T11:24:33.185Z,22.10
2017-09-09T11:27:00.774Z,22.40
2017-09-09T11:29:28.298Z,22.50
2017-09-09T11:31:55.838Z,22.60
2017-09-09T11:34:24.129Z,22.30
2017-09-09T11:36:51.641Z,22.30
2017-09-09T11:39:19.277Z,22.30
2017-09-09T11:41:46.833Z,22.30
2017-09-09T11:44:14.347Z,22.40
2017-09-09T11:46:42.669Z,22.80
2017-09-09T11:49:10.227Z,22.80
2017-09-09T11:51:37.785Z,22.70
2017-09-09T11:54:05.346Z,22.70
2017-09-09T11:56:32.863Z,22.60
2017-09-09T11:59:01.146Z,22.90
2017-09-09T12:01:29.461Z,22.80
2017-09-09T12:03:56.978Z,22.80
2017-09-09T12:06:25.299Z,22.40
2017-09-09T12:08:52.854Z,22.40
2017-09-09T12:11:20.374Z,22.40
2017-09-09T12:13:48.690Z,22.70
2017-09-09T12:16:16.232Z,22.70
2017-09-09T12:18:43.754Z,22.80
2017-09-09T12:21:11.902Z,23.10
2017-09-09T12:23:39.482Z,23.10
2017-09-09T12:26:08.506Z,22.90
2017-09-09T12:28:36.793Z,22.60
2017-09-09T12:31:04.477Z,22.50
2017-09-09T12:33:32.002Z,22.40
2017-09-09T12:35:59.529Z,22.10
2017-09-09T12:38:27.070Z,21.90
2017-09-09T12:40:54.617Z,21.50
2017-09-09T12:43:22.143Z,21.30
2017-09-09T12:45:50.445Z,20.90
2017-09-09T12:48:17.957Z,20.90
2017-09-09T12:50:46.381Z,20.80
2017-09-09T12:53:13.955Z,20.80
2017-09-09T12:55:41.468Z,20.90
2017-09-09T12:58:09.756Z,21.30
2017-09-09T13:00:38.058Z,21.70
2017-09-09T13:03:05.587Z,21.70
2017-09-09T13:05:33.901Z,22.60
2017-09-09T13:08:01.438Z,22.60
2017-09-09T13:10:29.018Z,23.60
2017-09-09T13:12:56.578Z,24.60
2017-09-09T13:15:24.142Z,25.10
2017-09-09T13:17:51.698Z,26.50
2017-09-09T13:20:19.217Z,28.70
2017-09-09T13:22:47.570Z,28.80
2017-09-09T13:25:15.098Z,28.80
2017-09-09T13:27:42.660Z,28.60
2017-09-09T13:30:10.214Z,27.80
2017-09-09T13:32:37.733Z,27.00
2017-09-09T13:35:06.049Z,26.40
2017-09-09T13:37:33.605Z,26.40
2017-09-09T13:40:01.177Z,25.80
2017-09-09T13:42:28.697Z,25.10
2017-09-09T13:44:57.109Z,24.00
2017-09-09T13:47:24.685Z,24.00
2017-09-09T13:49:52.232Z,23.70
2017-09-09T13:52:19.769Z,23.70
2017-09-09T13:54:47.552Z,23.50
2017-09-09T13:57:15.111Z,23.40
2017-09-09T13:59:42.650Z,23.40
2017-09-09T14:02:10.185Z,23.10
2017-09-09T14:04:38.479Z,22.40
2017-09-09T14:07:06.785Z,22.20
2017-09-09T14:09:34.346Z,22.20
2017-09-09T14:12:01.866Z,21.90
2017-09-09T14:14:30.282Z,21.30
2017-09-09T14:16:57.812Z,21.30
2017-09-09T14:19:26.122Z,21.10
2017-09-09T14:21:53.658Z,21.10
2017-09-09T14:24:21.239Z,20.80
2017-09-09T14:26:49.823Z,20.60
2017-09-09T14:29:17.392Z,20.50
2017-09-09T14:31:44.953Z,20.30
2017-09-09T14:34:12.520Z,20.10
2017-09-09T14:36:40.061Z,20.00
2017-09-09T14:39:07.585Z,19.70
2017-09-09T14:41:35.913Z,19.70
2017-09-09T14:44:03.516Z,19.60
2017-09-09T14:46:31.809Z,19.30
2017-09-09T14:49:00.125Z,19.10
2017-09-09T14:51:27.777Z,19.10
2017-09-09T14:53:55.548Z,19.10
2017-09-09T14:56:23.070Z,19.10
2017-09-09T14:58:51.379Z,18.70
2017-09-09T15:01:18.941Z,18.70
2017-09-09T15:03:46.452Z,18.60
2017-09-09T15:06:14.773Z,18.40
2017-09-09T15:08:42.332Z,18.40
2017-09-09T15:11:09.852Z,18.40
2017-09-09T15:13:38.168Z,18.30
2017-09-09T15:16:05.692Z,18.30
2017-09-09T15:18:33.218Z,18.30
2017-09-09T15:21:00.767Z,18.10
2017-09-09T15:23:28.282Z,17.90
2017-09-09T15:25:56.567Z,17.70
2017-09-09T15:28:24.150Z,17.60
2017-09-09T15:30:51.720Z,17.60
2017-09-09T15:33:19.244Z,17.50
2017-09-09T15:35:46.833Z,17.40
2017-09-09T15:38:14.362Z,17.30
2017-09-09T15:40:42.642Z,17.10
2017-09-09T15:43:10.190Z,17.10
2017-09-09T15:45:38.599Z,16.90
2017-09-09T15:48:06.113Z,16.80
2017-09-09T15:50:33.651Z,16.80
2017-09-09T15:53:01.164Z,16.70
2017-09-09T15:55:28.685Z,16.60
2017-09-09T15:57:56.231Z,16.60
2017-09-09T16:00:23.765Z,16.60
2017-09-09T16:02:51.291Z,16.50
2017-09-09T16:05:18.831Z,16.40
2017-09-09T16:07:47.123Z,16.30
2017-09-09T16:10:14.711Z,16.30
2017-09-09T16:12:42.255Z,16.30
2017-09-09T16:15:09.928Z,16.30
2017-09-09T16:17:37.493Z,16.20
2017-09-09T16:20:05.047Z,16.20
2017-09-09T16:22:32.610Z,16.20
2017-09-09T16:25:00.246Z,16.10
2017-09-09T16:27:28.654Z,16.10
2017-09-09T16:29:56.171Z,16.00
2017-09-09T16:32:23.710Z,16.00
2017-09-09T16:34:51.433Z,16.00
2017-09-09T16:37:18.945Z,15.90
2017-09-09T16:39:47.234Z,15.70
2017-09-09T16:42:15.534Z,15.60
2017-09-09T16:44:43.113Z,15.60
2017-09-09T16:47:10.637Z,15.40
2017-09-09T16:49:38.938Z,15.30
2017-09-09T16:52:07.177Z,15.20
2017-09-09T16:54:35.493Z,15.20
2017-09-09T16:57:03.057Z,15.20
2017-09-09T16:59:30.578Z,15.20
2017-09-09T17:01:58.873Z,15.00
2017-09-09T17:04:26.411Z,15.00
2017-09-09T17:06:53.937Z,15.00
2017-09-09T17:09:21.563Z,15.00
2017-09-09T17:11:49.136Z,14.90
2017-09-09T17:14:16.669Z,14.90
2017-09-09T17:16:44.258Z,14.80
2017-09-09T17:19:11.831Z,14.80
2017-09-09T17:21:39.344Z,14.80
2017-09-09T17:24:07.629Z,14.70
2017-09-09T17:26:35.214Z,14.70
2017-09-09T17:29:02.774Z,14.70
2017-09-09T17:31:30.426Z,14.70
2017-09-09T17:33:57.966Z,14.70
2017-09-09T17:36:25.500Z,14.70
2017-09-09T17:38:53.794Z,14.60
2017-09-09T17:41:22.118Z,14.60
2017-09-09T17:43:49.642Z,14.60
2017-09-09T17:46:17.225Z,14.60
2017-09-09T17:48:44.882Z,14.50
2017-09-09T17:51:12.446Z,14.50
2017-09-09T17:53:40.014Z,14.50
2017-09-09T17:56:07.566Z,14.50
2017-09-09T17:58:35.121Z,14.40
2017-09-09T18:01:02.651Z,14.40
2017-09-09T18:03:30.193Z,14.40
2017-09-09T18:05:58.487Z,14.40
2017-09-09T18:08:26.777Z,14.40
2017-09-09T18:10:54.319Z,14.40
2017-09-09T18:13:22.613Z,14.40
2017-09-09T18:15:50.143Z,14.40
2017-09-09T18:18:18.451Z,14.30
2017-09-09T18:20:45.982Z,14.30
2017-09-09T18:23:14.276Z,14.30
2017-09-09T18:25:41.862Z,14.30
2017-09-09T18:28:09.426Z,14.30
2017-09-09T18:30:36.963Z,14.30
2017-09-09T18:33:04.510Z,14.30
2017-09-09T18:35:32.802Z,14.20
2017-09-09T18:38:00.326Z,14.20
2017-09-09T18:40:27.870Z,14.20
2017-09-09T18:42:55.397Z,14.20
2017-09-09T18:45:22.921Z,14.20
2017-09-09T18:47:51.360Z,14.10
2017-09-09T18:50:18.893Z,14.10
2017-09-09T18:52:46.453Z,14.10
2017-09-09T18:55:13.989Z,14.10
2017-09-09T18:57:41.578Z,14.00
2017-09-09T19:00:09.130Z,14.00
2017-09-09T19:02:36.711Z,14.00
2017-09-09T19:05:04.372Z,14.00
2017-09-09T19:07:31.936Z,14.00
2017-09-09T19:09:59.573Z,14.00
2017-09-09T19:12:27.161Z,14.00
2017-09-09T19:14:54.733Z,14.10
2017-09-09T19:17:22.292Z,14.10
2017-09-09T19:19:49.812Z,14.00
2017-09-09T19:22:17.353Z,14.00
2017-09-09T19:24:44.930Z,14.00
2017-09-09T19:27:12.500Z,14.00
2017-09-09T19:29:40.027Z,14.00
2017-09-09T19:32:08.330Z,14.10
2017-09-09T19:34:36.002Z,14.00
2017-09-09T19:37:03.563Z,14.00
2017-09-09T19:39:31.124Z,14.00
2017-09-09T19:41:58.642Z,14.00
2017-09-09T19:44:26.958Z,14.00
2017-09-09T19:46:54.599Z,14.00
2017-09-09T19:49:22.189Z,14.00
2017-09-09T19:51:49.727Z,14.00
2017-09-09T19:54:17.287Z,14.00
2017-09-09T19:56:44.813Z,14.00
2017-09-09T19:59:13.129Z,14.00
2017-09-09T20:01:40.683Z,14.00
2017-09-09T20:04:08.232Z,14.00
2017-09-09T20:06:35.803Z,14.10
2017-09-09T20:09:03.364Z,14.10
2017-09-09T20:11:30.937Z,14.10
2017-09-09T20:13:58.482Z,14.10
2017-09-09T20:16:26.047Z,14.10
2017-09-09T20:18:53.577Z,14.10
2017-09-09T20:21:21.113Z,14.10
2017-09-09T20:23:49.431Z,14.10
2017-09-09T20:26:16.954Z,14.10
2017-09-09T20:28:45.262Z,14.00
2017-09-09T20:31:12.808Z,14.00
2017-09-09T20:33:41.103Z,14.10
2017-09-09T20:36:08.634Z,14.00
2017-09-09T20:38:36.950Z,14.10
2017-09-09T20:41:04.482Z,14.00
2017-09-09T20:43:32.122Z,14.00
2017-09-09T20:46:00.434Z,14.00
2017-09-09T20:48:28.033Z,14.00
2017-09-09T20:50:55.550Z,14.00
2017-09-09T20:53:23.124Z,13.90
2017-09-09T20:55:50.646Z,13.90
2017-09-09T20:58:18.935Z,13.90
2017-09-09T21:00:46.535Z,13.90
2017-09-09T21:03:14.101Z,13.80
2017-09-09T21:05:41.625Z,13.90
2017-09-09T21:08:09.201Z,13.90
2017-09-09T21:10:36.724Z,13.90
2017-09-09T21:13:04.273Z,13.80
2017-09-09T21:15:32.673Z,13.80
2017-09-09T21:18:00.261Z,13.80
2017-09-09T21:20:27.829Z,13.90
2017-09-09T21:22:55.379Z,13.80
2017-09-09T21:25:22.910Z,13.80
2017-09-09T21:27:51.226Z,13.70
2017-09-09T21:30:18.771Z,13.70
2017-09-09T21:32:46.292Z,13.70
2017-09-09T21:35:14.586Z,13.70
2017-09-09T21:37:42.126Z,13.70
2017-09-09T21:40:09.662Z,13.70
2017-09-09T21:42:37.295Z,13.70
2017-09-09T21:45:04.870Z,13.60
2017-09-09T21:47:32.394Z,13.60
2017-09-09T21:49:59.970Z,13.60
2017-09-09T21:52:27.526Z,13.60
2017-09-09T21:54:55.050Z,13.50
2017-09-09T21:57:23.370Z,13.50
2017-09-09T21:59:50.918Z,13.50
2017-09-09T22:02:18.493Z,13.50
2017-09-09T22:04:46.022Z,13.50
2017-09-09T22:07:13.565Z,13.40
2017-09-09T22:09:41.162Z,13.40
2017-09-09T22:12:08.685Z,13.40
2017-09-09T22:14:36.985Z,13.40
2017-09-09T22:17:04.512Z,13.30
2017-09-09T22:19:32.832Z,13.40
2017-09-09T22:22:00.393Z,13.30
2017-09-09T22:24:27.981Z,13.40
2017-09-09T22:26:55.505Z,13.30
2017-09-09T22:29:23.059Z,13.40
2017-09-09T22:31:50.590Z,13.40
2017-09-09T22:34:18.908Z,13.30
2017-09-09T22:36:46.458Z,13.30
2017-09-09T22:39:13.987Z,13.30
2017-09-09T22:41:42.283Z,13.30
2017-09-09T22:44:09.830Z,13.30
2017-09-09T22:46:38.124Z,13.30
2017-09-09T22:49:05.662Z,13.30
2017-09-09T22:51:33.274Z,13.30
2017-09-09T22:54:00.826Z,13.30
2017-09-09T22:56:28.386Z,13.30
2017-09-09T22:58:56.007Z,13.30
2017-09-09T23:01:24.325Z,13.20
2017-09-09T23:03:51.890Z,13.20
2017-09-09T23:06:19.544Z,13.20
2017-09-09T23:09:00.425Z,13.20
2017-09-09T23:11:27.969Z,13.20
2017-09-09T23:13:55.509Z,13.20
2017-09-09T23:16:23.040Z,13.20
2017-09-09T23:18:51.549Z,13.20
2017-09-09T23:21:19.119Z,13.20
2017-09-09T23:23:46.669Z,13.20
2017-09-09T23:26:14.215Z,13.20
2017-09-09T23:28:41.789Z,13.20
2017-09-09T23:31:09.352Z,13.20
2017-09-09T23:33:37.828Z,13.10
2017-09-09T23:36:05.357Z,13.10
2017-09-09T23:38:33.684Z,13.10
2017-09-09T23:41:01.234Z,13.10
2017-09-09T23:43:28.788Z,13.10
2017-09-09T23:45:56.314Z,13.10
2017-09-09T23:48:24.627Z,13.10
2017-09-09T23:50:52.188Z,13.00
2017-09-09T23:53:19.745Z,13.10
2017-09-09T23:55:47.298Z,13.10
2017-09-09T23:58:14.822Z,13.10
